Aérodrome :
LOGIN :

S'inscrire | Disclaimer

   EN    FR    IT 

 










Légende :    VFR   VFR Marginal   IFR   IFR Intensif   IFR Très Intensif
Visi : 
Plafond : 
>= 8 km
>= 3000ft
5 à 8 km
1000 à 3000 ft
1500m à 5 km
500 à 1000 ft
800 à 1500m
200 à 500 ft
< 800m
< 200 ft
Symboles :   Orages  Brouillard  Fortes neiges  Fortes précipitations  Vent > 20 kt
SIGMETs :   Divers  Orages  Givrage  Turbulence  Onde Orograph.  Cendres Volcan.






- Altitude de l'aérodrome : 202 ft
- Code IATA : LGW


EGKK - London Gatwick

DERNIER METAR :
  • 231250Z 32005KT 280V350 9999 FEW018 03/01 Q0995

METARs EXPIRÉS :
  • 231220Z 31005KT CAVOK 02/01 Q0995
  • 231150Z 27003KT CAVOK 01/01 Q0995
  • 231120Z VRB02KT CAVOK 00/M00 Q0995
  • 231050Z VRB02KT CAVOK 00/M00 Q0995
  • 231020Z VRB02KT CAVOK M00/M01 Q0994

TAF TAF EGKK
Valide du 23 à 12h jusqu'au 24 à 18h UTC


231056Z 2312/2418 VRB03KT 9999 FEW025
BECMG 2312/2315 30010KT
PROB30
TEMPO 2314/2318 5000 -SHRASN BKN010
BECMG 2404/2407 13004KT
PROB30
TEMPO 2405/2409 6000
TEMPO 2409/2414 1500 SN BKN002
PROB40
TEMPO 2414/2418 1500 SN BKN002



MET'MAP, la Météo Aéronautique d'un coup d'oeil ! - Copyright ORBIFLY Décembre 2007 - Disclaimer

ORBIFLY MET'MAP TEAM :

Programmation & Développement : Alexandra Zaïnal
Sur une idée originale de : Baudouin d'Aumeries
Assistance à la programmation : Marc-Olivier Méhu
Soutien technique & logistique : Manuel Goepfert

Contact : metmap@orbifly.com




SOURCES & CREDITS :

   NOAA